createdAt,value
2019-03-12T00:04:09.661Z,11.43
2019-03-12T00:09:34.436Z,11.10
2019-03-12T00:14:58.191Z,11.67
2019-03-12T00:20:22.886Z,10.40
2019-03-12T00:25:47.048Z,10.77
2019-03-12T00:31:11.683Z,9.67
2019-03-12T00:36:36.423Z,9.97
2019-03-12T00:42:01.075Z,9.27
2019-03-12T00:47:25.687Z,11.37
2019-03-12T00:52:50.346Z,9.20
2019-03-12T00:58:14.271Z,10.10
2019-03-12T01:03:38.518Z,12.70
2019-03-12T01:09:03.795Z,11.27
2019-03-12T01:14:29.048Z,12.43
2019-03-12T01:19:53.727Z,11.20
2019-03-12T01:25:17.986Z,11.53
2019-03-12T01:30:41.635Z,11.60
2019-03-12T01:36:06.029Z,11.27
2019-03-12T01:41:30.055Z,10.97
2019-03-12T01:46:54.657Z,11.20
2019-03-12T01:52:19.557Z,9.77
2019-03-12T01:57:43.323Z,11.57
2019-03-12T02:03:08.896Z,10.97
2019-03-12T02:08:32.546Z,9.97
2019-03-12T02:13:57.182Z,12.10
2019-03-12T02:19:21.173Z,13.13
2019-03-12T02:24:52.532Z,12.80
2019-03-12T02:30:13.573Z,14.40
2019-03-12T02:35:37.481Z,12.53
2019-03-12T02:41:01.741Z,14.37
2019-03-12T02:46:26.016Z,14.60
2019-03-12T02:51:50.672Z,14.40
2019-03-12T02:57:14.521Z,14.73
2019-03-12T03:02:39.130Z,15.60
2019-03-12T03:08:07.106Z,14.87
2019-03-12T03:13:30.858Z,16.03
2019-03-12T03:18:55.367Z,15.50
2019-03-12T03:24:19.039Z,16.70
2019-03-12T03:29:43.332Z,15.10
2019-03-12T03:35:07.940Z,16.27
2019-03-12T03:40:31.560Z,15.70
2019-03-12T03:45:56.315Z,16.73
2019-03-12T03:51:21.268Z,16.37
2019-03-12T03:56:45.493Z,17.07
2019-03-12T04:02:09.444Z,17.83
2019-03-12T04:07:34.342Z,17.07
2019-03-12T04:12:58.273Z,15.43
2019-03-12T04:18:23.062Z,16.60
2019-03-12T04:23:47.770Z,16.27
2019-03-12T04:29:12.465Z,16.00
2019-03-12T04:34:39.814Z,17.30
2019-03-12T04:40:05.187Z,16.67
2019-03-12T04:45:29.022Z,16.57
2019-03-12T04:50:52.756Z,16.77
2019-03-12T04:56:16.981Z,17.07
2019-03-12T05:01:41.718Z,15.70
2019-03-12T05:07:06.532Z,15.03
2019-03-12T05:12:30.741Z,11.63
2019-03-12T05:17:55.455Z,13.87
2019-03-12T05:23:19.283Z,12.23
2019-03-12T05:28:43.927Z,12.87
2019-03-12T05:34:08.213Z,10.13
2019-03-12T05:39:32.848Z,10.90
2019-03-12T05:44:58.269Z,10.93
2019-03-12T05:50:22.257Z,8.87
2019-03-12T05:55:47.262Z,10.57
2019-03-12T06:01:11.769Z,12.93
2019-03-12T06:06:36.234Z,11.20
2019-03-12T06:12:00.930Z,11.03
2019-03-12T06:17:25.895Z,10.43
2019-03-12T06:22:50.558Z,9.37
2019-03-12T06:28:15.076Z,8.07
2019-03-12T06:33:56.104Z,7.87
2019-03-12T06:39:43.222Z,7.07
2019-03-12T06:45:27.499Z,7.40
2019-03-12T06:50:58.085Z,8.53
2019-03-12T06:56:47.089Z,7.37
2019-03-12T07:02:29.966Z,7.50
2019-03-12T07:08:21.771Z,7.23
2019-03-12T07:14:24.006Z,7.27
2019-03-12T07:20:06.112Z,8.53
2019-03-12T07:25:51.015Z,7.97
2019-03-12T07:31:37.113Z,8.60
2019-03-12T07:37:08.642Z,9.13
2019-03-12T07:42:40.397Z,10.33
2019-03-12T07:48:21.620Z,10.53
2019-03-12T07:54:20.069Z,8.57
2019-03-12T07:59:57.331Z,8.77
2019-03-12T08:05:47.868Z,9.20
2019-03-12T08:11:18.929Z,10.07
2019-03-12T08:16:57.130Z,10.17
2019-03-12T08:22:30.518Z,8.93
2019-03-12T08:28:01.192Z,9.57
2019-03-12T08:33:49.958Z,9.60
2019-03-12T08:39:24.873Z,9.03
2019-03-12T08:45:11.082Z,8.73
2019-03-12T08:51:00.199Z,7.37
2019-03-12T08:57:02.079Z,7.50
2019-03-12T09:02:36.231Z,9.60
2019-03-12T09:08:34.065Z,6.87
2019-03-12T09:14:35.132Z,5.50
2019-03-12T09:20:27.599Z,5.97
2019-03-12T09:25:59.995Z,8.00
2019-03-12T09:31:34.057Z,7.57
2019-03-12T09:37:22.965Z,7.73
2019-03-12T09:43:05.532Z,6.70
2019-03-12T09:48:35.109Z,4.57
2019-03-12T09:54:10.143Z,3.13
2019-03-12T10:00:15.066Z,3.20
2019-03-12T10:05:35.719Z,2.87
2019-03-12T10:11:17.417Z,3.50
2019-03-12T10:16:55.046Z,2.90
2019-03-12T10:22:35.834Z,3.90
2019-03-12T10:28:37.725Z,2.53
2019-03-12T10:34:33.753Z,2.03
2019-03-12T10:40:13.110Z,1.90
2019-03-12T10:45:59.170Z,1.90
2019-03-12T10:51:23.426Z,2.20
2019-03-12T10:56:46.998Z,2.20
2019-03-12T11:02:11.605Z,1.87
2019-03-12T11:07:35.507Z,1.90
2019-03-12T11:13:00.368Z,1.60
2019-03-12T11:18:25.303Z,1.90
2019-03-12T11:23:49.094Z,1.87
2019-03-12T11:29:12.930Z,1.20
2019-03-12T11:34:38.704Z,1.70
2019-03-12T11:40:03.915Z,1.90
2019-03-12T11:45:36.327Z,1.40
2019-03-12T11:50:54.535Z,2.00
2019-03-12T11:56:19.354Z,1.83
2019-03-12T12:01:43.403Z,1.40
2019-03-12T12:07:08.105Z,1.60
2019-03-12T12:12:32.858Z,1.92
2019-03-12T12:17:56.981Z,1.43
2019-03-12T12:23:20.643Z,1.83
2019-03-12T12:28:45.373Z,1.80
2019-03-12T12:34:09.636Z,1.53
2019-03-12T12:39:33.259Z,2.13
2019-03-12T12:44:57.122Z,1.80
2019-03-12T12:50:21.814Z,1.67
2019-03-12T12:55:46.113Z,1.70
2019-03-12T13:01:10.925Z,2.10
2019-03-12T13:06:35.428Z,1.73
2019-03-12T13:12:00.170Z,1.67
2019-03-12T13:17:24.905Z,1.90
2019-03-12T13:22:49.638Z,1.60
2019-03-12T13:28:13.998Z,1.70
2019-03-12T13:33:37.864Z,1.77
2019-03-12T13:39:04.377Z,1.80
2019-03-12T13:44:30.047Z,1.87
2019-03-12T13:49:54.206Z,1.97
2019-03-12T13:55:18.281Z,1.87
2019-03-12T14:00:42.198Z,1.93
2019-03-12T14:06:06.829Z,2.40
2019-03-12T14:11:30.732Z,2.40
2019-03-12T14:16:55.542Z,2.50
2019-03-12T14:22:20.041Z,2.43
2019-03-12T14:27:43.855Z,3.00
2019-03-12T14:33:07.574Z,3.13
2019-03-12T14:38:31.982Z,2.50
2019-03-12T14:43:56.536Z,3.33
2019-03-12T14:49:21.361Z,2.93
2019-03-12T14:54:45.091Z,4.10
2019-03-12T15:00:19.597Z,3.57
2019-03-12T15:05:44.449Z,3.87
2019-03-12T15:11:08.155Z,4.43
2019-03-12T15:16:32.491Z,4.00
2019-03-12T15:21:56.566Z,3.50
2019-03-12T15:27:21.393Z,4.00
2019-03-12T15:32:46.131Z,3.20
2019-03-12T15:38:09.944Z,4.03
2019-03-12T15:43:34.055Z,3.80
2019-03-12T15:48:57.984Z,3.77
2019-03-12T15:54:22.545Z,3.43
2019-03-12T15:59:47.649Z,3.87
2019-03-12T16:05:11.941Z,4.07
2019-03-12T16:10:36.992Z,3.87
2019-03-12T16:16:01.689Z,3.57
2019-03-12T16:21:26.141Z,3.30
2019-03-12T16:26:49.699Z,3.47
2019-03-12T16:32:14.993Z,3.47
2019-03-12T16:37:39.520Z,3.90
2019-03-12T16:43:04.163Z,3.27
2019-03-12T16:48:28.207Z,2.70
2019-03-12T16:53:52.747Z,3.50
2019-03-12T16:59:17.200Z,4.20
2019-03-12T17:04:41.580Z,2.33
2019-03-12T17:10:07.722Z,3.33
2019-03-12T17:15:32.113Z,3.00
2019-03-12T17:20:55.968Z,2.77
2019-03-12T17:26:21.180Z,2.90
2019-03-12T17:31:44.754Z,3.03
2019-03-12T17:37:09.197Z,3.17
2019-03-12T17:42:33.685Z,3.43
2019-03-12T17:47:57.601Z,3.37
2019-03-12T17:53:21.295Z,3.77
2019-03-12T17:58:46.095Z,4.07
2019-03-12T18:04:10.448Z,3.50
2019-03-12T18:09:34.983Z,3.70
2019-03-12T18:14:59.373Z,3.03
2019-03-12T18:20:23.207Z,3.62
2019-03-12T18:25:48.123Z,3.27
2019-03-12T18:31:12.851Z,3.27
2019-03-12T18:36:37.703Z,3.47
2019-03-12T18:42:02.354Z,3.90
2019-03-12T18:47:26.061Z,4.13
2019-03-12T18:52:50.798Z,3.80
2019-03-12T18:58:15.748Z,3.83
2019-03-12T19:03:40.449Z,3.90
2019-03-12T19:09:05.856Z,3.20
2019-03-12T19:14:31.260Z,3.47
2019-03-12T19:19:55.323Z,3.40
2019-03-12T19:25:19.238Z,3.43
2019-03-12T19:30:43.983Z,4.40
2019-03-12T19:36:08.027Z,2.97
2019-03-12T19:41:31.982Z,3.90
2019-03-12T19:46:56.718Z,3.00
2019-03-12T19:52:21.508Z,2.97
2019-03-12T19:57:46.254Z,2.87
2019-03-12T20:03:14.753Z,2.43
2019-03-12T20:08:37.000Z,3.00
2019-03-12T20:14:30.236Z,2.67
2019-03-12T20:20:28.284Z,2.97
2019-03-12T20:26:48.461Z,3.17
2019-03-12T20:33:04.795Z,2.93
2019-03-12T20:39:18.696Z,2.90
2019-03-12T20:45:14.146Z,3.90
2019-03-12T20:51:25.740Z,2.93
2019-03-12T20:57:26.626Z,3.07
2019-03-12T21:03:18.313Z,3.20
2019-03-12T21:09:28.307Z,3.30
2019-03-12T21:15:21.061Z,3.43
2019-03-12T21:22:03.280Z,2.87
2019-03-12T21:27:58.921Z,3.43
2019-03-12T21:33:22.594Z,3.50
2019-03-12T21:38:46.405Z,3.60
2019-03-12T21:44:10.465Z,3.60
2019-03-12T21:49:35.052Z,3.33
2019-03-12T21:54:58.847Z,3.20
2019-03-12T22:00:23.496Z,3.27
2019-03-12T22:05:48.478Z,3.07
2019-03-12T22:11:12.352Z,2.83
2019-03-12T22:16:36.230Z,4.17
2019-03-12T22:22:21.666Z,3.50
2019-03-12T22:27:45.790Z,3.00
2019-03-12T22:33:10.583Z,3.33
2019-03-12T22:38:34.392Z,2.97
2019-03-12T22:43:59.004Z,3.00
2019-03-12T22:49:23.570Z,3.10
2019-03-12T22:54:48.122Z,2.50
2019-03-12T23:00:13.525Z,2.47
2019-03-12T23:05:55.649Z,2.20
2019-03-12T23:11:37.751Z,3.27
2019-03-12T23:17:02.177Z,2.33
2019-03-12T23:22:26.769Z,2.60
2019-03-12T23:27:51.637Z,2.27
2019-03-12T23:33:16.223Z,2.90
2019-03-12T23:38:40.524Z,2.37
2019-03-12T23:44:05.752Z,1.93
2019-03-12T23:49:29.652Z,1.70
2019-03-12T23:54:53.731Z,2.10
